sensor_id;sensor_type;location;lat;lon;timestamp;temperature;humidity
69626;DHT22;56847;51.984;5.088;2023-04-15T00:02:16;12.50;55.60
69626;DHT22;56847;51.984;5.088;2023-04-15T00:04:45;12.50;55.70
69626;DHT22;56847;51.984;5.088;2023-04-15T00:07:15;12.50;55.90
69626;DHT22;56847;51.984;5.088;2023-04-15T00:09:45;12.50;55.90
69626;DHT22;56847;51.984;5.088;2023-04-15T00:12:12;12.50;56.10
69626;DHT22;56847;51.984;5.088;2023-04-15T00:14:42;12.40;55.90
69626;DHT22;56847;51.984;5.088;2023-04-15T00:17:10;12.40;55.80
69626;DHT22;56847;51.984;5.088;2023-04-15T00:19:37;12.40;55.70
69626;DHT22;56847;51.984;5.088;2023-04-15T00:22:04;12.30;55.70
69626;DHT22;56847;51.984;5.088;2023-04-15T00:24:38;12.30;55.80
69626;DHT22;56847;51.984;5.088;2023-04-15T00:27:05;12.20;56.00
69626;DHT22;56847;51.984;5.088;2023-04-15T00:29:32;12.20;55.90
69626;DHT22;56847;51.984;5.088;2023-04-15T00:32:02;12.20;56.00
69626;DHT22;56847;51.984;5.088;2023-04-15T00:34:29;12.20;56.10
69626;DHT22;56847;51.984;5.088;2023-04-15T00:36:56;12.10;55.90
69626;DHT22;56847;51.984;5.088;2023-04-15T00:39:24;12.10;56.20
69626;DHT22;56847;51.984;5.088;2023-04-15T00:41:51;12.10;56.30
69626;DHT22;56847;51.984;5.088;2023-04-15T00:44:18;12.10;56.40
69626;DHT22;56847;51.984;5.088;2023-04-15T00:46:46;12.10;56.60
69626;DHT22;56847;51.984;5.088;2023-04-15T00:49:18;12.10;56.80
69626;DHT22;56847;51.984;5.088;2023-04-15T00:51:48;12.10;57.00
69626;DHT22;56847;51.984;5.088;2023-04-15T00:54:16;12.00;56.90
69626;DHT22;56847;51.984;5.088;2023-04-15T00:56:44;12.00;57.00
69626;DHT22;56847;51.984;5.088;2023-04-15T00:59:13;12.00;57.10
69626;DHT22;56847;51.984;5.088;2023-04-15T01:01:40;12.00;57.10
69626;DHT22;56847;51.984;5.088;2023-04-15T01:04:12;12.00;57.20
69626;DHT22;56847;51.984;5.088;2023-04-15T01:06:39;11.90;57.30
69626;DHT22;56847;51.984;5.088;2023-04-15T01:09:06;11.90;57.50
69626;DHT22;56847;51.984;5.088;2023-04-15T01:11:36;11.80;57.70
69626;DHT22;56847;51.984;5.088;2023-04-15T01:14:03;11.80;57.60
69626;DHT22;56847;51.984;5.088;2023-04-15T01:16:30;11.80;57.70
69626;DHT22;56847;51.984;5.088;2023-04-15T01:18:57;11.80;57.70
69626;DHT22;56847;51.984;5.088;2023-04-15T01:21:25;11.80;57.90
69626;DHT22;56847;51.984;5.088;2023-04-15T01:23:53;11.70;57.90
69626;DHT22;56847;51.984;5.088;2023-04-15T01:26:21;11.70;58.00
69626;DHT22;56847;51.984;5.088;2023-04-15T01:28:53;11.70;58.20
69626;DHT22;56847;51.984;5.088;2023-04-15T01:31:20;11.70;58.20
69626;DHT22;56847;51.984;5.088;2023-04-15T01:33:48;11.60;58.40
69626;DHT22;56847;51.984;5.088;2023-04-15T01:36:15;11.60;58.50
69626;DHT22;56847;51.984;5.088;2023-04-15T01:38:42;11.50;58.70
69626;DHT22;56847;51.984;5.088;2023-04-15T01:41:09;11.50;58.70
69626;DHT22;56847;51.984;5.088;2023-04-15T01:43:36;11.50;58.80
69626;DHT22;56847;51.984;5.088;2023-04-15T01:46:04;11.40;58.80
69626;DHT22;56847;51.984;5.088;2023-04-15T01:48:31;11.40;59.00
69626;DHT22;56847;51.984;5.088;2023-04-15T01:50:59;11.40;59.10
69626;DHT22;56847;51.984;5.088;2023-04-15T01:53:26;11.40;59.10
69626;DHT22;56847;51.984;5.088;2023-04-15T01:55:54;11.40;59.30
69626;DHT22;56847;51.984;5.088;2023-04-15T01:58:21;11.40;59.40
69626;DHT22;56847;51.984;5.088;2023-04-15T02:00:48;11.30;59.50
69626;DHT22;56847;51.984;5.088;2023-04-15T02:03:16;11.30;59.60
69626;DHT22;56847;51.984;5.088;2023-04-15T02:05:44;11.30;59.60
69626;DHT22;56847;51.984;5.088;2023-04-15T02:08:11;11.20;59.90
69626;DHT22;56847;51.984;5.088;2023-04-15T02:10:38;11.20;59.90
69626;DHT22;56847;51.984;5.088;2023-04-15T02:13:05;11.20;59.90
69626;DHT22;56847;51.984;5.088;2023-04-15T02:15:32;11.10;60.10
69626;DHT22;56847;51.984;5.088;2023-04-15T02:18:00;11.10;60.20
69626;DHT22;56847;51.984;5.088;2023-04-15T02:20:27;11.10;60.30
69626;DHT22;56847;51.984;5.088;2023-04-15T02:22:57;11.10;60.20
69626;DHT22;56847;51.984;5.088;2023-04-15T02:25:24;11.00;60.30
69626;DHT22;56847;51.984;5.088;2023-04-15T02:27:51;11.00;60.50
69626;DHT22;56847;51.984;5.088;2023-04-15T02:30:19;11.00;60.60
69626;DHT22;56847;51.984;5.088;2023-04-15T02:32:46;11.00;60.60
69626;DHT22;56847;51.984;5.088;2023-04-15T02:35:14;10.90;60.70
69626;DHT22;56847;51.984;5.088;2023-04-15T02:37:41;10.90;60.70
69626;DHT22;56847;51.984;5.088;2023-04-15T02:40:12;10.90;60.90
69626;DHT22;56847;51.984;5.088;2023-04-15T02:42:40;10.90;61.00
69626;DHT22;56847;51.984;5.088;2023-04-15T02:45:10;10.80;61.20
69626;DHT22;56847;51.984;5.088;2023-04-15T02:47:40;10.80;61.20
69626;DHT22;56847;51.984;5.088;2023-04-15T02:50:12;10.80;61.30
69626;DHT22;56847;51.984;5.088;2023-04-15T02:52:42;10.80;61.30
69626;DHT22;56847;51.984;5.088;2023-04-15T02:55:10;10.70;61.50
69626;DHT22;56847;51.984;5.088;2023-04-15T02:57:37;10.70;61.60
69626;DHT22;56847;51.984;5.088;2023-04-15T03:00:08;10.70;61.70
69626;DHT22;56847;51.984;5.088;2023-04-15T03:02:40;10.70;61.70
69626;DHT22;56847;51.984;5.088;2023-04-15T03:05:13;10.70;61.80
69626;DHT22;56847;51.984;5.088;2023-04-15T03:07:46;10.60;62.10
69626;DHT22;56847;51.984;5.088;2023-04-15T03:10:13;10.60;62.20
69626;DHT22;56847;51.984;5.088;2023-04-15T03:12:42;10.60;62.30
69626;DHT22;56847;51.984;5.088;2023-04-15T03:15:14;10.50;62.20
69626;DHT22;56847;51.984;5.088;2023-04-15T03:17:46;10.50;62.30
69626;DHT22;56847;51.984;5.088;2023-04-15T03:20:16;10.50;62.50
69626;DHT22;56847;51.984;5.088;2023-04-15T03:22:43;10.40;62.70
69626;DHT22;56847;51.984;5.088;2023-04-15T03:25:10;10.40;62.80
69626;DHT22;56847;51.984;5.088;2023-04-15T03:27:37;10.40;62.90
69626;DHT22;56847;51.984;5.088;2023-04-15T03:30:06;10.40;62.90
69626;DHT22;56847;51.984;5.088;2023-04-15T03:32:35;10.30;63.00
69626;DHT22;56847;51.984;5.088;2023-04-15T03:35:05;10.30;63.10
69626;DHT22;56847;51.984;5.088;2023-04-15T03:37:32;10.30;63.20
69626;DHT22;56847;51.984;5.088;2023-04-15T03:39:59;10.30;63.20
69626;DHT22;56847;51.984;5.088;2023-04-15T03:42:26;10.20;63.40
69626;DHT22;56847;51.984;5.088;2023-04-15T03:44:53;10.20;63.60
69626;DHT22;56847;51.984;5.088;2023-04-15T03:47:20;10.20;63.60
69626;DHT22;56847;51.984;5.088;2023-04-15T03:49:47;10.20;63.80
69626;DHT22;56847;51.984;5.088;2023-04-15T03:52:14;10.20;63.80
69626;DHT22;56847;51.984;5.088;2023-04-15T03:54:41;10.20;63.90
69626;DHT22;56847;51.984;5.088;2023-04-15T03:57:08;10.20;64.00
69626;DHT22;56847;51.984;5.088;2023-04-15T03:59:35;10.10;64.10
69626;DHT22;56847;51.984;5.088;2023-04-15T04:02:03;10.10;64.30
69626;DHT22;56847;51.984;5.088;2023-04-15T04:04:30;10.10;64.30
69626;DHT22;56847;51.984;5.088;2023-04-15T04:06:57;10.10;64.50
69626;DHT22;56847;51.984;5.088;2023-04-15T04:09:27;10.10;64.50
69626;DHT22;56847;51.984;5.088;2023-04-15T04:11:54;10.10;64.50
69626;DHT22;56847;51.984;5.088;2023-04-15T04:14:22;10.00;64.50
69626;DHT22;56847;51.984;5.088;2023-04-15T04:16:55;10.00;64.80
69626;DHT22;56847;51.984;5.088;2023-04-15T04:19:23;10.00;64.70
69626;DHT22;56847;51.984;5.088;2023-04-15T04:21:50;10.00;64.90
69626;DHT22;56847;51.984;5.088;2023-04-15T04:24:18;10.00;64.90
69626;DHT22;56847;51.984;5.088;2023-04-15T04:26:45;9.90;65.00
69626;DHT22;56847;51.984;5.088;2023-04-15T04:29:11;9.90;65.00
69626;DHT22;56847;51.984;5.088;2023-04-15T04:31:38;9.90;65.30
69626;DHT22;56847;51.984;5.088;2023-04-15T04:34:06;9.90;65.30
69626;DHT22;56847;51.984;5.088;2023-04-15T04:36:33;9.90;65.30
69626;DHT22;56847;51.984;5.088;2023-04-15T04:39:00;9.90;65.40
69626;DHT22;56847;51.984;5.088;2023-04-15T04:41:28;9.80;65.60
69626;DHT22;56847;51.984;5.088;2023-04-15T04:43:55;9.80;65.90
69626;DHT22;56847;51.984;5.088;2023-04-15T04:46:22;9.80;65.90
69626;DHT22;56847;51.984;5.088;2023-04-15T04:48:50;9.80;65.90
69626;DHT22;56847;51.984;5.088;2023-04-15T04:51:17;9.80;65.90
69626;DHT22;56847;51.984;5.088;2023-04-15T04:53:44;9.80;66.10
69626;DHT22;56847;51.984;5.088;2023-04-15T04:56:11;9.80;66.10
69626;DHT22;56847;51.984;5.088;2023-04-15T04:58:38;9.80;66.20
69626;DHT22;56847;51.984;5.088;2023-04-15T05:01:05;9.80;66.30
69626;DHT22;56847;51.984;5.088;2023-04-15T05:03:32;9.70;66.40
69626;DHT22;56847;51.984;5.088;2023-04-15T05:06:01;9.70;66.60
69626;DHT22;56847;51.984;5.088;2023-04-15T05:08:32;9.80;66.80
69626;DHT22;56847;51.984;5.088;2023-04-15T05:10:59;9.70;66.90
69626;DHT22;56847;51.984;5.088;2023-04-15T05:13:26;9.70;66.80
69626;DHT22;56847;51.984;5.088;2023-04-15T05:15:53;9.70;67.00
69626;DHT22;56847;51.984;5.088;2023-04-15T05:18:20;9.80;67.10
69626;DHT22;56847;51.984;5.088;2023-04-15T05:20:48;9.80;67.00
69626;DHT22;56847;51.984;5.088;2023-04-15T05:23:18;9.80;67.20
69626;DHT22;56847;51.984;5.088;2023-04-15T05:25:45;9.80;67.20
69626;DHT22;56847;51.984;5.088;2023-04-15T05:28:12;9.80;67.40
69626;DHT22;56847;51.984;5.088;2023-04-15T05:30:39;9.80;67.40
69626;DHT22;56847;51.984;5.088;2023-04-15T05:33:06;9.80;67.30
69626;DHT22;56847;51.984;5.088;2023-04-15T05:35:37;9.80;67.40
69626;DHT22;56847;51.984;5.088;2023-04-15T05:38:07;9.80;67.40
69626;DHT22;56847;51.984;5.088;2023-04-15T05:40:42;9.80;67.50
69626;DHT22;56847;51.984;5.088;2023-04-15T05:43:11;9.80;67.60
69626;DHT22;56847;51.984;5.088;2023-04-15T05:45:41;9.80;67.60
69626;DHT22;56847;51.984;5.088;2023-04-15T05:48:11;9.80;67.70
69626;DHT22;56847;51.984;5.088;2023-04-15T05:50:42;9.90;67.80
69626;DHT22;56847;51.984;5.088;2023-04-15T05:53:12;9.90;67.80
69626;DHT22;56847;51.984;5.088;2023-04-15T05:55:40;10.00;67.80
69626;DHT22;56847;51.984;5.088;2023-04-15T05:58:07;9.90;68.10
69626;DHT22;56847;51.984;5.088;2023-04-15T06:00:40;10.00;68.20
69626;DHT22;56847;51.984;5.088;2023-04-15T06:03:09;10.00;68.30
69626;DHT22;56847;51.984;5.088;2023-04-15T06:05:37;10.00;68.40
69626;DHT22;56847;51.984;5.088;2023-04-15T06:08:11;10.10;68.60
69626;DHT22;56847;51.984;5.088;2023-04-15T06:10:59;10.10;68.60
69626;DHT22;56847;51.984;5.088;2023-04-15T06:13:32;10.10;68.60
69626;DHT22;56847;51.984;5.088;2023-04-15T06:16:09;10.20;68.70
69626;DHT22;56847;51.984;5.088;2023-04-15T06:18:47;10.30;68.70
69626;DHT22;56847;51.984;5.088;2023-04-15T06:21:14;10.40;68.70
69626;DHT22;56847;51.984;5.088;2023-04-15T06:23:42;10.50;68.60
69626;DHT22;56847;51.984;5.088;2023-04-15T06:26:09;10.60;68.40
69626;DHT22;56847;51.984;5.088;2023-04-15T06:28:36;10.70;68.30
69626;DHT22;56847;51.984;5.088;2023-04-15T06:31:03;10.70;68.10
69626;DHT22;56847;51.984;5.088;2023-04-15T06:33:31;10.80;68.00
69626;DHT22;56847;51.984;5.088;2023-04-15T06:36:01;10.90;67.70
69626;DHT22;56847;51.984;5.088;2023-04-15T06:38:30;11.00;67.70
69626;DHT22;56847;51.984;5.088;2023-04-15T06:40:56;11.10;67.50
69626;DHT22;56847;51.984;5.088;2023-04-15T06:43:24;11.10;67.50
69626;DHT22;56847;51.984;5.088;2023-04-15T06:45:51;11.20;67.10
69626;DHT22;56847;51.984;5.088;2023-04-15T06:48:18;11.30;67.30
69626;DHT22;56847;51.984;5.088;2023-04-15T06:50:45;11.30;67.20
69626;DHT22;56847;51.984;5.088;2023-04-15T06:53:12;11.40;67.10
69626;DHT22;56847;51.984;5.088;2023-04-15T06:55:39;11.50;66.90
69626;DHT22;56847;51.984;5.088;2023-04-15T06:58:13;11.60;66.80
69626;DHT22;56847;51.984;5.088;2023-04-15T07:00:40;11.70;66.90
69626;DHT22;56847;51.984;5.088;2023-04-15T07:03:11;11.80;66.80
69626;DHT22;56847;51.984;5.088;2023-04-15T07:05:38;11.80;66.60
69626;DHT22;56847;51.984;5.088;2023-04-15T07:08:06;11.90;66.60
69626;DHT22;56847;51.984;5.088;2023-04-15T07:10:36;12.00;66.50
69626;DHT22;56847;51.984;5.088;2023-04-15T07:13:03;12.10;66.40
69626;DHT22;56847;51.984;5.088;2023-04-15T07:15:31;12.20;66.30
69626;DHT22;56847;51.984;5.088;2023-04-15T07:17:58;12.30;66.20
69626;DHT22;56847;51.984;5.088;2023-04-15T07:20:25;12.40;65.70
69626;DHT22;56847;51.984;5.088;2023-04-15T07:22:52;12.40;65.90
69626;DHT22;56847;51.984;5.088;2023-04-15T07:25:19;12.50;66.00
69626;DHT22;56847;51.984;5.088;2023-04-15T07:27:46;12.60;65.60
69626;DHT22;56847;51.984;5.088;2023-04-15T07:30:13;12.70;65.60
69626;DHT22;56847;51.984;5.088;2023-04-15T07:32:41;12.80;65.50
69626;DHT22;56847;51.984;5.088;2023-04-15T07:35:12;12.80;65.30
69626;DHT22;56847;51.984;5.088;2023-04-15T07:37:41;12.90;65.30
69626;DHT22;56847;51.984;5.088;2023-04-15T07:40:09;13.00;65.00
69626;DHT22;56847;51.984;5.088;2023-04-15T07:42:37;13.10;64.90
69626;DHT22;56847;51.984;5.088;2023-04-15T07:45:07;13.10;64.20
69626;DHT22;56847;51.984;5.088;2023-04-15T07:47:38;13.20;64.20
69626;DHT22;56847;51.984;5.088;2023-04-15T07:50:08;13.20;64.10
69626;DHT22;56847;51.984;5.088;2023-04-15T07:52:40;13.30;63.80
69626;DHT22;56847;51.984;5.088;2023-04-15T07:55:07;13.40;63.30
69626;DHT22;56847;51.984;5.088;2023-04-15T07:57:42;13.40;62.70
69626;DHT22;56847;51.984;5.088;2023-04-15T08:00:13;13.50;62.40
69626;DHT22;56847;51.984;5.088;2023-04-15T08:02:41;13.50;62.30
69626;DHT22;56847;51.984;5.088;2023-04-15T08:05:13;13.60;62.00
69626;DHT22;56847;51.984;5.088;2023-04-15T08:07:40;13.70;62.00
69626;DHT22;56847;51.984;5.088;2023-04-15T08:10:07;13.80;61.60
69626;DHT22;56847;51.984;5.088;2023-04-15T08:12:38;13.90;61.60
69626;DHT22;56847;51.984;5.088;2023-04-15T08:15:06;14.00;61.40
69626;DHT22;56847;51.984;5.088;2023-04-15T08:17:36;14.20;61.40
69626;DHT22;56847;51.984;5.088;2023-04-15T08:20:03;14.30;61.40
69626;DHT22;56847;51.984;5.088;2023-04-15T08:22:31;14.50;61.10
69626;DHT22;56847;51.984;5.088;2023-04-15T08:24:58;14.60;60.90
69626;DHT22;56847;51.984;5.088;2023-04-15T08:27:25;14.70;59.40
69626;DHT22;56847;51.984;5.088;2023-04-15T08:29:52;14.80;58.80
69626;DHT22;56847;51.984;5.088;2023-04-15T08:32:19;14.80;58.60
69626;DHT22;56847;51.984;5.088;2023-04-15T08:34:47;14.90;58.80
69626;DHT22;56847;51.984;5.088;2023-04-15T08:37:14;15.00;58.10
69626;DHT22;56847;51.984;5.088;2023-04-15T08:39:41;15.10;57.00
69626;DHT22;56847;51.984;5.088;2023-04-15T08:42:11;15.10;57.30
69626;DHT22;56847;51.984;5.088;2023-04-15T08:44:43;15.20;56.60
69626;DHT22;56847;51.984;5.088;2023-04-15T08:47:12;15.30;54.90
69626;DHT22;56847;51.984;5.088;2023-04-15T08:49:43;15.20;54.70
69626;DHT22;56847;51.984;5.088;2023-04-15T08:52:10;15.20;54.90
69626;DHT22;56847;51.984;5.088;2023-04-15T08:54:41;15.30;54.70
69626;DHT22;56847;51.984;5.088;2023-04-15T08:57:09;15.40;54.90
69626;DHT22;56847;51.984;5.088;2023-04-15T08:59:37;15.50;54.80
69626;DHT22;56847;51.984;5.088;2023-04-15T09:02:04;15.50;55.10
69626;DHT22;56847;51.984;5.088;2023-04-15T09:04:32;15.60;55.10
69626;DHT22;56847;51.984;5.088;2023-04-15T09:07:02;15.70;54.90
69626;DHT22;56847;51.984;5.088;2023-04-15T09:09:30;15.80;54.50
69626;DHT22;56847;51.984;5.088;2023-04-15T09:11:57;15.80;53.90
69626;DHT22;56847;51.984;5.088;2023-04-15T09:14:24;15.80;53.60
69626;DHT22;56847;51.984;5.088;2023-04-15T09:16:58;15.90;53.00
69626;DHT22;56847;51.984;5.088;2023-04-15T09:19:26;16.00;52.80
69626;DHT22;56847;51.984;5.088;2023-04-15T09:21:55;16.10;53.20
69626;DHT22;56847;51.984;5.088;2023-04-15T09:24:34;16.20;53.00
69626;DHT22;56847;51.984;5.088;2023-04-15T09:27:03;16.30;52.80
69626;DHT22;56847;51.984;5.088;2023-04-15T09:29:30;16.40;52.10
69626;DHT22;56847;51.984;5.088;2023-04-15T09:32:09;16.50;52.40
69626;DHT22;56847;51.984;5.088;2023-04-15T09:34:36;16.50;51.60
69626;DHT22;56847;51.984;5.088;2023-04-15T09:37:04;16.60;51.90
69626;DHT22;56847;51.984;5.088;2023-04-15T09:39:47;16.60;51.70
69626;DHT22;56847;51.984;5.088;2023-04-15T09:42:16;16.70;51.40
69626;DHT22;56847;51.984;5.088;2023-04-15T09:44:53;16.80;51.00
69626;DHT22;56847;51.984;5.088;2023-04-15T09:47:30;16.80;51.00
69626;DHT22;56847;51.984;5.088;2023-04-15T09:49:59;16.90;50.40
69626;DHT22;56847;51.984;5.088;2023-04-15T09:52:27;16.90;50.20
69626;DHT22;56847;51.984;5.088;2023-04-15T09:54:57;16.90;50.10
69626;DHT22;56847;51.984;5.088;2023-04-15T09:57:24;17.00;49.80
69626;DHT22;56847;51.984;5.088;2023-04-15T09:59:51;17.00;49.40
69626;DHT22;56847;51.984;5.088;2023-04-15T10:02:19;17.10;49.80
69626;DHT22;56847;51.984;5.088;2023-04-15T10:04:47;17.10;49.40
69626;DHT22;56847;51.984;5.088;2023-04-15T10:07:16;17.10;48.80
69626;DHT22;56847;51.984;5.088;2023-04-15T10:09:47;17.10;48.50
69626;DHT22;56847;51.984;5.088;2023-04-15T10:12:18;17.10;48.80
69626;DHT22;56847;51.984;5.088;2023-04-15T10:15:00;17.20;49.10
69626;DHT22;56847;51.984;5.088;2023-04-15T10:17:29;17.30;48.80
69626;DHT22;56847;51.984;5.088;2023-04-15T10:20:03;17.30;48.00
69626;DHT22;56847;51.984;5.088;2023-04-15T10:22:31;17.40;47.70
69626;DHT22;56847;51.984;5.088;2023-04-15T10:24:59;17.40;48.10
69626;DHT22;56847;51.984;5.088;2023-04-15T10:27:27;17.40;47.80
69626;DHT22;56847;51.984;5.088;2023-04-15T10:29:55;17.40;47.50
69626;DHT22;56847;51.984;5.088;2023-04-15T10:32:23;17.40;47.60
69626;DHT22;56847;51.984;5.088;2023-04-15T10:34:51;17.30;47.60
69626;DHT22;56847;51.984;5.088;2023-04-15T10:37:37;17.40;47.90
69626;DHT22;56847;51.984;5.088;2023-04-15T10:40:24;17.40;47.60
69626;DHT22;56847;51.984;5.088;2023-04-15T10:42:58;17.40;48.10
69626;DHT22;56847;51.984;5.088;2023-04-15T10:45:30;17.40;47.90
69626;DHT22;56847;51.984;5.088;2023-04-15T10:48:01;17.40;48.10
69626;DHT22;56847;51.984;5.088;2023-04-15T10:50:32;17.50;48.20
69626;DHT22;56847;51.984;5.088;2023-04-15T10:53:02;17.60;48.30
69626;DHT22;56847;51.984;5.088;2023-04-15T10:55:33;17.70;48.40
69626;DHT22;56847;51.984;5.088;2023-04-15T10:58:01;17.80;47.90
69626;DHT22;56847;51.984;5.088;2023-04-15T11:00:29;17.90;48.20
69626;DHT22;56847;51.984;5.088;2023-04-15T11:02:59;18.00;48.40
69626;DHT22;56847;51.984;5.088;2023-04-15T11:08:11;18.10;47.90
69626;DHT22;56847;51.984;5.088;2023-04-15T11:13:15;18.20;47.90
69626;DHT22;56847;51.984;5.088;2023-04-15T11:15:47;18.30;47.70
69626;DHT22;56847;51.984;5.088;2023-04-15T11:18:24;18.30;47.40
69626;DHT22;56847;51.984;5.088;2023-04-15T11:20:53;18.40;47.50
69626;DHT22;56847;51.984;5.088;2023-04-15T11:23:38;18.20;47.00
69626;DHT22;56847;51.984;5.088;2023-04-15T11:26:07;18.10;47.40
69626;DHT22;56847;51.984;5.088;2023-04-15T11:28:40;18.00;47.60
69626;DHT22;56847;51.984;5.088;2023-04-15T11:31:16;18.00;47.60
69626;DHT22;56847;51.984;5.088;2023-04-15T11:33:55;18.10;47.80
69626;DHT22;56847;51.984;5.088;2023-04-15T11:36:24;18.30;47.90
69626;DHT22;56847;51.984;5.088;2023-04-15T11:38:53;18.50;48.10
69626;DHT22;56847;51.984;5.088;2023-04-15T11:41:23;18.60;47.70
69626;DHT22;56847;51.984;5.088;2023-04-15T11:43:51;18.60;47.20
69626;DHT22;56847;51.984;5.088;2023-04-15T11:46:19;18.50;47.70
69626;DHT22;56847;51.984;5.088;2023-04-15T11:48:47;18.70;48.00
69626;DHT22;56847;51.984;5.088;2023-04-15T11:51:14;18.60;47.50
69626;DHT22;56847;51.984;5.088;2023-04-15T11:53:43;18.40;47.00
69626;DHT22;56847;51.984;5.088;2023-04-15T11:56:24;18.30;47.50
69626;DHT22;56847;51.984;5.088;2023-04-15T11:58:56;18.40;47.90
69626;DHT22;56847;51.984;5.088;2023-04-15T12:01:34;18.30;47.40
69626;DHT22;56847;51.984;5.088;2023-04-15T12:04:02;18.10;47.90
69626;DHT22;56847;51.984;5.088;2023-04-15T12:06:37;18.00;48.40
69626;DHT22;56847;51.984;5.088;2023-04-15T12:09:16;18.00;48.80
69626;DHT22;56847;51.984;5.088;2023-04-15T12:11:45;18.00;48.70
69626;DHT22;56847;51.984;5.088;2023-04-15T12:14:27;18.00;49.40
69626;DHT22;56847;51.984;5.088;2023-04-15T12:17:02;18.00;49.00
69626;DHT22;56847;51.984;5.088;2023-04-15T12:19:37;18.20;48.90
69626;DHT22;56847;51.984;5.088;2023-04-15T12:22:09;18.10;47.70
69626;DHT22;56847;51.984;5.088;2023-04-15T12:24:37;18.00;47.50
69626;DHT22;56847;51.984;5.088;2023-04-15T12:27:06;17.80;47.40
69626;DHT22;56847;51.984;5.088;2023-04-15T12:29:37;17.60;48.20
69626;DHT22;56847;51.984;5.088;2023-04-15T12:32:23;17.50;48.20
69626;DHT22;56847;51.984;5.088;2023-04-15T12:34:51;17.50;48.50
69626;DHT22;56847;51.984;5.088;2023-04-15T12:37:19;17.60;48.80
69626;DHT22;56847;51.984;5.088;2023-04-15T12:39:48;17.70;48.40
69626;DHT22;56847;51.984;5.088;2023-04-15T12:42:16;17.80;48.80
69626;DHT22;56847;51.984;5.088;2023-04-15T12:44:43;17.90;48.10
69626;DHT22;56847;51.984;5.088;2023-04-15T12:47:11;17.90;47.90
69626;DHT22;56847;51.984;5.088;2023-04-15T12:49:38;17.80;48.10
69626;DHT22;56847;51.984;5.088;2023-04-15T12:52:06;17.70;48.30
69626;DHT22;56847;51.984;5.088;2023-04-15T12:54:32;17.80;49.20
69626;DHT22;56847;51.984;5.088;2023-04-15T12:57:01;17.90;49.10
69626;DHT22;56847;51.984;5.088;2023-04-15T12:59:34;17.70;49.10
69626;DHT22;56847;51.984;5.088;2023-04-15T13:02:01;17.50;49.20
69626;DHT22;56847;51.984;5.088;2023-04-15T13:04:29;17.50;49.50
69626;DHT22;56847;51.984;5.088;2023-04-15T13:06:57;17.50;49.40
69626;DHT22;56847;51.984;5.088;2023-04-15T13:09:24;17.50;49.70
69626;DHT22;56847;51.984;5.088;2023-04-15T13:11:52;17.60;49.70
69626;DHT22;56847;51.984;5.088;2023-04-15T13:14:20;17.70;49.50
69626;DHT22;56847;51.984;5.088;2023-04-15T13:16:47;17.80;49.40
69626;DHT22;56847;51.984;5.088;2023-04-15T13:19:14;17.70;49.40
69626;DHT22;56847;51.984;5.088;2023-04-15T13:21:41;17.80;49.80
69626;DHT22;56847;51.984;5.088;2023-04-15T13:24:08;17.90;50.00
69626;DHT22;56847;51.984;5.088;2023-04-15T13:26:35;18.00;49.50
69626;DHT22;56847;51.984;5.088;2023-04-15T13:29:03;17.90;49.20
69626;DHT22;56847;51.984;5.088;2023-04-15T13:31:30;17.80;48.90
69626;DHT22;56847;51.984;5.088;2023-04-15T13:33:58;17.50;49.50
69626;DHT22;56847;51.984;5.088;2023-04-15T13:36:26;17.40;50.50
69626;DHT22;56847;51.984;5.088;2023-04-15T13:38:53;17.50;50.90
69626;DHT22;56847;51.984;5.088;2023-04-15T13:41:20;17.70;50.70
69626;DHT22;56847;51.984;5.088;2023-04-15T13:43:47;17.70;49.70
69626;DHT22;56847;51.984;5.088;2023-04-15T13:46:17;17.60;49.80
69626;DHT22;56847;51.984;5.088;2023-04-15T13:48:48;17.30;48.70
69626;DHT22;56847;51.984;5.088;2023-04-15T13:51:15;17.10;48.90
69626;DHT22;56847;51.984;5.088;2023-04-15T13:53:42;17.20;49.60
69626;DHT22;56847;51.984;5.088;2023-04-15T13:56:09;17.20;48.80
69626;DHT22;56847;51.984;5.088;2023-04-15T13:58:37;17.20;49.20
69626;DHT22;56847;51.984;5.088;2023-04-15T14:01:04;17.20;49.00
69626;DHT22;56847;51.984;5.088;2023-04-15T14:03:34;17.20;48.90
69626;DHT22;56847;51.984;5.088;2023-04-15T14:06:03;17.20;48.70
69626;DHT22;56847;51.984;5.088;2023-04-15T14:08:38;17.30;49.20
69626;DHT22;56847;51.984;5.088;2023-04-15T14:11:05;17.60;49.10
69626;DHT22;56847;51.984;5.088;2023-04-15T14:13:32;17.70;48.70
69626;DHT22;56847;51.984;5.088;2023-04-15T14:15:59;17.70;48.30
69626;DHT22;56847;51.984;5.088;2023-04-15T14:18:27;17.80;47.80
69626;DHT22;56847;51.984;5.088;2023-04-15T14:20:56;17.70;47.80
69626;DHT22;56847;51.984;5.088;2023-04-15T14:23:23;17.60;47.90
69626;DHT22;56847;51.984;5.088;2023-04-15T14:25:50;17.60;48.10
69626;DHT22;56847;51.984;5.088;2023-04-15T14:28:17;17.80;48.10
69626;DHT22;56847;51.984;5.088;2023-04-15T14:30:44;17.90;48.10
69626;DHT22;56847;51.984;5.088;2023-04-15T14:33:14;17.90;48.10
69626;DHT22;56847;51.984;5.088;2023-04-15T14:35:42;18.10;48.10
69626;DHT22;56847;51.984;5.088;2023-04-15T14:38:08;18.10;48.10
69626;DHT22;56847;51.984;5.088;2023-04-15T14:40:37;18.10;48.20
69626;DHT22;56847;51.984;5.088;2023-04-15T14:43:06;18.20;48.30
69626;DHT22;56847;51.984;5.088;2023-04-15T14:45:33;18.30;48.00
69626;DHT22;56847;51.984;5.088;2023-04-15T14:48:00;18.20;47.70
69626;DHT22;56847;51.984;5.088;2023-04-15T14:50:31;18.10;47.40
69626;DHT22;56847;51.984;5.088;2023-04-15T14:52:58;17.90;48.10
69626;DHT22;56847;51.984;5.088;2023-04-15T14:55:25;18.00;48.30
69626;DHT22;56847;51.984;5.088;2023-04-15T14:57:52;18.10;47.90
69626;DHT22;56847;51.984;5.088;2023-04-15T15:00:19;18.10;47.50
69626;DHT22;56847;51.984;5.088;2023-04-15T15:02:46;18.20;47.50
69626;DHT22;56847;51.984;5.088;2023-04-15T15:05:13;18.30;47.90
69626;DHT22;56847;51.984;5.088;2023-04-15T15:07:40;18.20;47.10
69626;DHT22;56847;51.984;5.088;2023-04-15T15:10:07;18.10;47.60
69626;DHT22;56847;51.984;5.088;2023-04-15T15:12:35;18.20;47.50
69626;DHT22;56847;51.984;5.088;2023-04-15T15:15:03;17.90;47.50
69626;DHT22;56847;51.984;5.088;2023-04-15T15:17:41;17.90;48.30
69626;DHT22;56847;51.984;5.088;2023-04-15T15:20:09;18.00;47.80
69626;DHT22;56847;51.984;5.088;2023-04-15T15:22:36;18.10;47.70
69626;DHT22;56847;51.984;5.088;2023-04-15T15:25:04;18.10;47.40
69626;DHT22;56847;51.984;5.088;2023-04-15T15:27:31;18.00;47.50
69626;DHT22;56847;51.984;5.088;2023-04-15T15:29:58;17.80;47.30
69626;DHT22;56847;51.984;5.088;2023-04-15T15:32:25;17.80;47.90
69626;DHT22;56847;51.984;5.088;2023-04-15T15:34:52;17.70;47.60
69626;DHT22;56847;51.984;5.088;2023-04-15T15:37:19;17.60;47.70
69626;DHT22;56847;51.984;5.088;2023-04-15T15:39:47;17.60;48.10
69626;DHT22;56847;51.984;5.088;2023-04-15T15:42:14;17.60;47.90
69626;DHT22;56847;51.984;5.088;2023-04-15T15:44:41;17.60;48.00
69626;DHT22;56847;51.984;5.088;2023-04-15T15:47:10;17.60;48.10
69626;DHT22;56847;51.984;5.088;2023-04-15T15:49:38;17.50;48.20